sensor_id;sensor_type;location;lat;lon;timestamp;P1;P2;P0
78330;PMS7003;67594;53.854;-1.542;2023-02-28T00:02:11;0.25;0.00;0.00
78330;PMS7003;67594;53.854;-1.542;2023-02-28T00:04:36;0.00;0.00;0.00
78330;PMS7003;67594;53.854;-1.542;2023-02-28T00:07:01;0.00;0.00;0.00
78330;PMS7003;67594;53.854;-1.542;2023-02-28T00:09:27;0.00;0.00;0.00
78330;PMS7003;67594;53.854;-1.542;2023-02-28T00:11:52;0.00;0.00;0.00
78330;PMS7003;67594;53.854;-1.542;2023-02-28T00:14:17;0.25;0.00;0.00
78330;PMS7003;67594;53.854;-1.542;2023-02-28T00:16:43;0.00;0.00;0.00
78330;PMS7003;67594;53.854;-1.542;2023-02-28T00:19:08;0.00;0.00;0.00
78330;PMS7003;67594;53.854;-1.542;2023-02-28T00:21:33;0.75;0.00;0.00
78330;PMS7003;67594;53.854;-1.542;2023-02-28T00:23:58;0.00;0.00;0.00
78330;PMS7003;67594;53.854;-1.542;2023-02-28T00:26:24;0.00;0.00;0.00
78330;PMS7003;67594;53.854;-1.542;2023-02-28T00:28:51;0.00;0.00;0.00
78330;PMS7003;67594;53.854;-1.542;2023-02-28T00:31:17;0.00;0.00;0.00
78330;PMS7003;67594;53.854;-1.542;2023-02-28T00:33:42;0.00;0.00;0.00
78330;PMS7003;67594;53.854;-1.542;2023-02-28T00:36:08;0.00;0.00;0.00
78330;PMS7003;67594;53.854;-1.542;2023-02-28T00:38:35;0.00;0.00;0.00
78330;PMS7003;67594;53.854;-1.542;2023-02-28T00:41:01;0.00;0.00;0.00
78330;PMS7003;67594;53.854;-1.542;2023-02-28T00:43:27;0.00;0.00;0.00
78330;PMS7003;67594;53.854;-1.542;2023-02-28T00:45:52;0.00;0.00;0.00
78330;PMS7003;67594;53.854;-1.542;2023-02-28T00:48:17;0.25;0.25;0.25
78330;PMS7003;67594;53.854;-1.542;2023-02-28T00:50:42;0.00;0.00;0.00
78330;PMS7003;67594;53.854;-1.542;2023-02-28T00:53:08;0.00;0.00;0.00
78330;PMS7003;67594;53.854;-1.542;2023-02-28T00:55:33;0.00;0.00;0.00
78330;PMS7003;67594;53.854;-1.542;2023-02-28T00:57:58;0.00;0.00;0.00
78330;PMS7003;67594;53.854;-1.542;2023-02-28T01:00:23;0.00;0.00;0.00
78330;PMS7003;67594;53.854;-1.542;2023-02-28T01:02:49;0.00;0.00;0.00
78330;PMS7003;67594;53.854;-1.542;2023-02-28T01:05:14;0.00;0.00;0.00
78330;PMS7003;67594;53.854;-1.542;2023-02-28T01:07:39;0.00;0.00;0.00
78330;PMS7003;67594;53.854;-1.542;2023-02-28T01:10:05;0.25;0.00;0.00
78330;PMS7003;67594;53.854;-1.542;2023-02-28T01:12:30;0.00;0.00;0.00
78330;PMS7003;67594;53.854;-1.542;2023-02-28T01:14:56;0.00;0.00;0.00
78330;PMS7003;67594;53.854;-1.542;2023-02-28T01:17:21;0.00;0.00;0.00
78330;PMS7003;67594;53.854;-1.542;2023-02-28T01:19:47;0.00;0.00;0.00
78330;PMS7003;67594;53.854;-1.542;2023-02-28T01:22:12;0.00;0.00;0.00
78330;PMS7003;67594;53.854;-1.542;2023-02-28T01:24:37;0.00;0.00;0.00
78330;PMS7003;67594;53.854;-1.542;2023-02-28T01:27:03;0.00;0.00;0.00
78330;PMS7003;67594;53.854;-1.542;2023-02-28T01:29:28;0.00;0.00;0.00
78330;PMS7003;67594;53.854;-1.542;2023-02-28T01:31:53;0.00;0.00;0.00
78330;PMS7003;67594;53.854;-1.542;2023-02-28T01:34:19;0.00;0.00;0.00
78330;PMS7003;67594;53.854;-1.542;2023-02-28T01:36:44;0.00;0.00;0.00
78330;PMS7003;67594;53.854;-1.542;2023-02-28T01:39:10;0.00;0.00;0.00
78330;PMS7003;67594;53.854;-1.542;2023-02-28T01:41:35;0.00;0.00;0.00
78330;PMS7003;67594;53.854;-1.542;2023-02-28T01:44:02;0.00;0.00;0.00
78330;PMS7003;67594;53.854;-1.542;2023-02-28T01:46:35;0.00;0.00;0.00
78330;PMS7003;67594;53.854;-1.542;2023-02-28T01:51:46;0.00;0.00;0.00
78330;PMS7003;67594;53.854;-1.542;2023-02-28T01:54:16;0.00;0.00;0.00
78330;PMS7003;67594;53.854;-1.542;2023-02-28T01:56:47;0.00;0.00;0.00
78330;PMS7003;67594;53.854;-1.542;2023-02-28T01:59:22;0.00;0.00;0.00
78330;PMS7003;67594;53.854;-1.542;2023-02-28T02:01:57;0.00;0.00;0.00
78330;PMS7003;67594;53.854;-1.542;2023-02-28T02:04:23;0.00;0.00;0.00
78330;PMS7003;67594;53.854;-1.542;2023-02-28T02:06:55;0.00;0.00;0.00
78330;PMS7003;67594;53.854;-1.542;2023-02-28T02:09:20;0.00;0.00;0.00
78330;PMS7003;67594;53.854;-1.542;2023-02-28T02:11:46;0.00;0.00;0.00
78330;PMS7003;67594;53.854;-1.542;2023-02-28T02:14:31;0.00;0.00;0.00
78330;PMS7003;67594;53.854;-1.542;2023-02-28T02:31:03;0.00;0.00;0.00
78330;PMS7003;67594;53.854;-1.542;2023-02-28T02:43:46;0.00;0.00;0.00
78330;PMS7003;67594;53.854;-1.542;2023-02-28T02:48:50;0.00;0.00;0.00
78330;PMS7003;67594;53.854;-1.542;2023-02-28T02:51:20;0.00;0.00;0.00
78330;PMS7003;67594;53.854;-1.542;2023-02-28T02:53:52;0.00;0.00;0.00
78330;PMS7003;67594;53.854;-1.542;2023-02-28T02:56:26;0.00;0.00;0.00
78330;PMS7003;67594;53.854;-1.542;2023-02-28T02:58:55;0.00;0.00;0.00
78330;PMS7003;67594;53.854;-1.542;2023-02-28T03:01:25;0.00;0.00;0.00
78330;PMS7003;67594;53.854;-1.542;2023-02-28T03:03:54;0.00;0.00;0.00
78330;PMS7003;67594;53.854;-1.542;2023-02-28T03:06:38;0.00;0.00;0.00
78330;PMS7003;67594;53.854;-1.542;2023-02-28T03:09:04;0.00;0.00;0.00
78330;PMS7003;67594;53.854;-1.542;2023-02-28T03:11:29;0.00;0.00;0.00
78330;PMS7003;67594;53.854;-1.542;2023-02-28T03:25:33;0.00;0.00;0.00
78330;PMS7003;67594;53.854;-1.542;2023-02-28T03:33:49;0.00;0.00;0.00
78330;PMS7003;67594;53.854;-1.542;2023-02-28T03:36:22;0.00;0.00;0.00
78330;PMS7003;67594;53.854;-1.542;2023-02-28T03:41:37;0.00;0.00;0.00
78330;PMS7003;67594;53.854;-1.542;2023-02-28T03:44:12;0.00;0.00;0.00
78330;PMS7003;67594;53.854;-1.542;2023-02-28T03:46:44;0.00;0.00;0.00
78330;PMS7003;67594;53.854;-1.542;2023-02-28T03:49:43;0.00;0.00;0.00
78330;PMS7003;67594;53.854;-1.542;2023-02-28T03:52:14;0.00;0.00;0.00
78330;PMS7003;67594;53.854;-1.542;2023-02-28T03:54:46;0.00;0.00;0.00
78330;PMS7003;67594;53.854;-1.542;2023-02-28T03:59:59;0.00;0.00;0.00
78330;PMS7003;67594;53.854;-1.542;2023-02-28T04:02:32;0.00;0.00;0.00
78330;PMS7003;67594;53.854;-1.542;2023-02-28T04:04:57;0.00;0.00;0.00
78330;PMS7003;67594;53.854;-1.542;2023-02-28T04:07:24;0.00;0.00;0.00
78330;PMS7003;67594;53.854;-1.542;2023-02-28T04:09:49;0.00;0.00;0.00
78330;PMS7003;67594;53.854;-1.542;2023-02-28T04:12:14;0.00;0.00;0.00
78330;PMS7003;67594;53.854;-1.542;2023-02-28T04:14:40;0.00;0.00;0.00
78330;PMS7003;67594;53.854;-1.542;2023-02-28T04:17:05;0.00;0.00;0.00
78330;PMS7003;67594;53.854;-1.542;2023-02-28T04:19:30;0.00;0.00;0.00
78330;PMS7003;67594;53.854;-1.542;2023-02-28T04:21:56;0.00;0.00;0.00
78330;PMS7003;67594;53.854;-1.542;2023-02-28T04:24:26;0.00;0.00;0.00
78330;PMS7003;67594;53.854;-1.542;2023-02-28T04:26:53;0.00;0.00;0.00
78330;PMS7003;67594;53.854;-1.542;2023-02-28T04:29:24;0.00;0.00;0.00
78330;PMS7003;67594;53.854;-1.542;2023-02-28T04:31:50;0.00;0.00;0.00
78330;PMS7003;67594;53.854;-1.542;2023-02-28T04:34:16;0.00;0.00;0.00
78330;PMS7003;67594;53.854;-1.542;2023-02-28T04:36:41;0.00;0.00;0.00
78330;PMS7003;67594;53.854;-1.542;2023-02-28T04:39:06;0.00;0.00;0.00
78330;PMS7003;67594;53.854;-1.542;2023-02-28T04:41:32;0.00;0.00;0.00
78330;PMS7003;67594;53.854;-1.542;2023-02-28T04:43:57;0.00;0.00;0.00
78330;PMS7003;67594;53.854;-1.542;2023-02-28T04:46:22;0.00;0.00;0.00
78330;PMS7003;67594;53.854;-1.542;2023-02-28T04:48:48;0.00;0.00;0.00
78330;PMS7003;67594;53.854;-1.542;2023-02-28T04:51:15;0.00;0.00;0.00
78330;PMS7003;67594;53.854;-1.542;2023-02-28T04:53:42;0.00;0.00;0.00
78330;PMS7003;67594;53.854;-1.542;2023-02-28T04:56:09;0.00;0.00;0.00
78330;PMS7003;67594;53.854;-1.542;2023-02-28T04:58:37;0.00;0.00;0.00
78330;PMS7003;67594;53.854;-1.542;2023-02-28T05:01:06;0.00;0.00;0.00
78330;PMS7003;67594;53.854;-1.542;2023-02-28T05:03:41;0.00;0.00;0.00
78330;PMS7003;67594;53.854;-1.542;2023-02-28T05:06:07;0.00;0.00;0.00
78330;PMS7003;67594;53.854;-1.542;2023-02-28T05:08:33;0.00;0.00;0.00
78330;PMS7003;67594;53.854;-1.542;2023-02-28T05:10:59;0.00;0.00;0.00
78330;PMS7003;67594;53.854;-1.542;2023-02-28T05:13:24;0.00;0.00;0.00
78330;PMS7003;67594;53.854;-1.542;2023-02-28T05:15:50;0.00;0.00;0.00
78330;PMS7003;67594;53.854;-1.542;2023-02-28T05:18:15;0.00;0.00;0.00
78330;PMS7003;67594;53.854;-1.542;2023-02-28T05:20:40;0.00;0.00;0.00
78330;PMS7003;67594;53.854;-1.542;2023-02-28T05:23:05;0.00;0.00;0.00
78330;PMS7003;67594;53.854;-1.542;2023-02-28T05:25:31;0.00;0.00;0.00
78330;PMS7003;67594;53.854;-1.542;2023-02-28T05:27:56;0.00;0.00;0.00
78330;PMS7003;67594;53.854;-1.542;2023-02-28T05:30:21;0.00;0.00;0.00
78330;PMS7003;67594;53.854;-1.542;2023-02-28T05:32:49;0.00;0.00;0.00
78330;PMS7003;67594;53.854;-1.542;2023-02-28T05:35:15;0.00;0.00;0.00
78330;PMS7003;67594;53.854;-1.542;2023-02-28T05:37:41;0.00;0.00;0.00
78330;PMS7003;67594;53.854;-1.542;2023-02-28T05:40:06;0.00;0.00;0.00
78330;PMS7003;67594;53.854;-1.542;2023-02-28T05:42:32;0.50;0.00;0.00
78330;PMS7003;67594;53.854;-1.542;2023-02-28T05:44:58;1.00;0.00;0.00
78330;PMS7003;67594;53.854;-1.542;2023-02-28T05:47:23;0.00;0.00;0.00
78330;PMS7003;67594;53.854;-1.542;2023-02-28T05:49:48;0.00;0.00;0.00
78330;PMS7003;67594;53.854;-1.542;2023-02-28T05:52:14;0.00;0.00;0.00
78330;PMS7003;67594;53.854;-1.542;2023-02-28T05:54:39;0.00;0.00;0.00
78330;PMS7003;67594;53.854;-1.542;2023-02-28T05:57:04;0.00;0.00;0.00
78330;PMS7003;67594;53.854;-1.542;2023-02-28T05:59:30;0.00;0.00;0.00
78330;PMS7003;67594;53.854;-1.542;2023-02-28T06:01:55;0.25;0.00;0.00
78330;PMS7003;67594;53.854;-1.542;2023-02-28T06:04:20;0.25;0.00;0.00
78330;PMS7003;67594;53.854;-1.542;2023-02-28T06:06:47;0.00;0.00;0.00
78330;PMS7003;67594;53.854;-1.542;2023-02-28T06:09:13;0.00;0.00;0.00
78330;PMS7003;67594;53.854;-1.542;2023-02-28T06:11:39;0.00;0.00;0.00
78330;PMS7003;67594;53.854;-1.542;2023-02-28T06:14:04;0.00;0.00;0.00
78330;PMS7003;67594;53.854;-1.542;2023-02-28T06:16:31;0.00;0.00;0.00
78330;PMS7003;67594;53.854;-1.542;2023-02-28T06:18:58;0.00;0.00;0.00
78330;PMS7003;67594;53.854;-1.542;2023-02-28T06:21:28;0.00;0.00;0.00
78330;PMS7003;67594;53.854;-1.542;2023-02-28T06:23:53;0.00;0.00;0.00
78330;PMS7003;67594;53.854;-1.542;2023-02-28T06:26:20;0.00;0.00;0.00
78330;PMS7003;67594;53.854;-1.542;2023-02-28T06:28:45;0.00;0.00;0.00
78330;PMS7003;67594;53.854;-1.542;2023-02-28T06:31:12;0.00;0.00;0.00
78330;PMS7003;67594;53.854;-1.542;2023-02-28T06:33:39;0.00;0.00;0.00
78330;PMS7003;67594;53.854;-1.542;2023-02-28T06:36:05;0.00;0.00;0.00
78330;PMS7003;67594;53.854;-1.542;2023-02-28T06:38:32;0.00;0.00;0.00
78330;PMS7003;67594;53.854;-1.542;2023-02-28T06:40:58;0.00;0.00;0.00
78330;PMS7003;67594;53.854;-1.542;2023-02-28T06:43:24;0.00;0.00;0.00
78330;PMS7003;67594;53.854;-1.542;2023-02-28T06:45:56;0.00;0.00;0.00
78330;PMS7003;67594;53.854;-1.542;2023-02-28T06:48:22;0.00;0.00;0.00
78330;PMS7003;67594;53.854;-1.542;2023-02-28T06:50:48;0.00;0.00;0.00
78330;PMS7003;67594;53.854;-1.542;2023-02-28T06:53:13;0.00;0.00;0.00
78330;PMS7003;67594;53.854;-1.542;2023-02-28T06:55:39;0.00;0.00;0.00
78330;PMS7003;67594;53.854;-1.542;2023-02-28T06:58:04;0.00;0.00;0.00
78330;PMS7003;67594;53.854;-1.542;2023-02-28T07:00:30;0.00;0.00;0.00
78330;PMS7003;67594;53.854;-1.542;2023-02-28T07:02:55;0.00;0.00;0.00
78330;PMS7003;67594;53.854;-1.542;2023-02-28T07:05:23;0.00;0.00;0.00
78330;PMS7003;67594;53.854;-1.542;2023-02-28T07:07:49;0.00;0.00;0.00
78330;PMS7003;67594;53.854;-1.542;2023-02-28T07:10:14;0.00;0.00;0.00
78330;PMS7003;67594;53.854;-1.542;2023-02-28T07:12:39;0.00;0.00;0.00
78330;PMS7003;67594;53.854;-1.542;2023-02-28T07:15:05;0.00;0.00;0.00
78330;PMS7003;67594;53.854;-1.542;2023-02-28T07:17:31;0.00;0.00;0.00
78330;PMS7003;67594;53.854;-1.542;2023-02-28T07:19:56;0.00;0.00;0.00
78330;PMS7003;67594;53.854;-1.542;2023-02-28T07:22:21;0.00;0.00;0.00
78330;PMS7003;67594;53.854;-1.542;2023-02-28T07:24:47;0.00;0.00;0.00
78330;PMS7003;67594;53.854;-1.542;2023-02-28T07:27:12;0.00;0.00;0.00
78330;PMS7003;67594;53.854;-1.542;2023-02-28T07:29:38;0.00;0.00;0.00
78330;PMS7003;67594;53.854;-1.542;2023-02-28T07:32:03;0.00;0.00;0.00
78330;PMS7003;67594;53.854;-1.542;2023-02-28T07:34:29;1.00;0.00;0.00
78330;PMS7003;67594;53.854;-1.542;2023-02-28T07:36:54;0.00;0.00;0.00
78330;PMS7003;67594;53.854;-1.542;2023-02-28T07:39:20;0.00;0.00;0.00
78330;PMS7003;67594;53.854;-1.542;2023-02-28T07:41:46;0.00;0.00;0.00
78330;PMS7003;67594;53.854;-1.542;2023-02-28T07:44:11;0.00;0.00;0.00
78330;PMS7003;67594;53.854;-1.542;2023-02-28T07:46:37;0.00;0.00;0.00
78330;PMS7003;67594;53.854;-1.542;2023-02-28T07:49:02;0.00;0.00;0.00
78330;PMS7003;67594;53.854;-1.542;2023-02-28T07:51:28;7.75;6.00;3.25
78330;PMS7003;67594;53.854;-1.542;2023-02-28T07:53:55;5.00;4.75;2.00
78330;PMS7003;67594;53.854;-1.542;2023-02-28T07:56:20;8.50;7.25;3.75
78330;PMS7003;67594;53.854;-1.542;2023-02-28T07:58:46;7.25;6.25;4.25
78330;PMS7003;67594;53.854;-1.542;2023-02-28T08:01:11;6.75;4.25;3.00
78330;PMS7003;67594;53.854;-1.542;2023-02-28T08:03:37;4.00;4.00;3.00
78330;PMS7003;67594;53.854;-1.542;2023-02-28T08:06:03;5.00;3.00;2.25
78330;PMS7003;67594;53.854;-1.542;2023-02-28T08:08:30;2.00;2.00;1.75
78330;PMS7003;67594;53.854;-1.542;2023-02-28T08:10:57;2.00;2.00;1.25
78330;PMS7003;67594;53.854;-1.542;2023-02-28T08:13:23;0.75;0.50;0.00
78330;PMS7003;67594;53.854;-1.542;2023-02-28T08:15:49;0.75;0.75;0.25
78330;PMS7003;67594;53.854;-1.542;2023-02-28T08:18:14;0.00;0.00;0.00
78330;PMS7003;67594;53.854;-1.542;2023-02-28T08:20:39;0.25;0.25;0.00
78330;PMS7003;67594;53.854;-1.542;2023-02-28T08:23:05;0.00;0.00;0.00
78330;PMS7003;67594;53.854;-1.542;2023-02-28T08:25:30;0.00;0.00;0.00
78330;PMS7003;67594;53.854;-1.542;2023-02-28T08:27:55;0.00;0.00;0.00
78330;PMS7003;67594;53.854;-1.542;2023-02-28T08:30:20;1.00;0.00;0.00
78330;PMS7003;67594;53.854;-1.542;2023-02-28T08:32:46;0.00;0.00;0.00
78330;PMS7003;67594;53.854;-1.542;2023-02-28T08:35:11;0.00;0.00;0.00
78330;PMS7003;67594;53.854;-1.542;2023-02-28T08:37:36;0.00;0.00;0.00
78330;PMS7003;67594;53.854;-1.542;2023-02-28T08:40:02;0.00;0.00;0.00
78330;PMS7003;67594;53.854;-1.542;2023-02-28T08:42:27;0.00;0.00;0.00
78330;PMS7003;67594;53.854;-1.542;2023-02-28T08:44:53;0.00;0.00;0.00
78330;PMS7003;67594;53.854;-1.542;2023-02-28T08:47:18;0.00;0.00;0.00
78330;PMS7003;67594;53.854;-1.542;2023-02-28T08:49:43;1.00;0.00;0.00
78330;PMS7003;67594;53.854;-1.542;2023-02-28T08:52:09;0.00;0.00;0.00
78330;PMS7003;67594;53.854;-1.542;2023-02-28T08:54:34;0.00;0.00;0.00
78330;PMS7003;67594;53.854;-1.542;2023-02-28T08:57:00;0.00;0.00;0.00
78330;PMS7003;67594;53.854;-1.542;2023-02-28T08:59:26;0.00;0.00;0.00
78330;PMS7003;67594;53.854;-1.542;2023-02-28T09:01:51;0.00;0.00;0.00
78330;PMS7003;67594;53.854;-1.542;2023-02-28T09:04:16;0.75;0.00;0.00
78330;PMS7003;67594;53.854;-1.542;2023-02-28T09:06:42;0.00;0.00;0.00
78330;PMS7003;67594;53.854;-1.542;2023-02-28T09:09:07;0.00;0.00;0.00
78330;PMS7003;67594;53.854;-1.542;2023-02-28T09:11:34;0.00;0.00;0.00
78330;PMS7003;67594;53.854;-1.542;2023-02-28T09:14:01;14.00;11.25;7.75
78330;PMS7003;67594;53.854;-1.542;2023-02-28T09:16:26;3.25;2.00;1.00
78330;PMS7003;67594;53.854;-1.542;2023-02-28T09:18:52;1.00;1.00;0.00
78330;PMS7003;67594;53.854;-1.542;2023-02-28T09:21:18;1.00;0.00;0.00
78330;PMS7003;67594;53.854;-1.542;2023-02-28T09:23:44;0.50;0.00;0.00
78330;PMS7003;67594;53.854;-1.542;2023-02-28T09:26:15;0.00;0.00;0.00
78330;PMS7003;67594;53.854;-1.542;2023-02-28T09:28:42;0.00;0.00;0.00
78330;PMS7003;67594;53.854;-1.542;2023-02-28T09:31:11;0.00;0.00;0.00
78330;PMS7003;67594;53.854;-1.542;2023-02-28T09:33:38;0.00;0.00;0.00
78330;PMS7003;67594;53.854;-1.542;2023-02-28T09:36:03;0.00;0.00;0.00
78330;PMS7003;67594;53.854;-1.542;2023-02-28T09:38:29;0.00;0.00;0.00
78330;PMS7003;67594;53.854;-1.542;2023-02-28T09:40:58;0.00;0.00;0.00
78330;PMS7003;67594;53.854;-1.542;2023-02-28T09:43:27;0.00;0.00;0.00
78330;PMS7003;67594;53.854;-1.542;2023-02-28T09:48:48;0.00;0.00;0.00
78330;PMS7003;67594;53.854;-1.542;2023-02-28T09:51:22;1.00;0.00;0.00
78330;PMS7003;67594;53.854;-1.542;2023-02-28T09:53:54;0.00;0.00;0.00
78330;PMS7003;67594;53.854;-1.542;2023-02-28T10:05:15;0.00;0.00;0.00
78330;PMS7003;67594;53.854;-1.542;2023-02-28T10:08:00;0.00;0.00;0.00
78330;PMS7003;67594;53.854;-1.542;2023-02-28T10:10:29;0.00;0.00;0.00
78330;PMS7003;67594;53.854;-1.542;2023-02-28T10:13:01;0.00;0.00;0.00
78330;PMS7003;67594;53.854;-1.542;2023-02-28T10:15:31;0.00;0.00;0.00
78330;PMS7003;67594;53.854;-1.542;2023-02-28T10:18:00;0.00;0.00;0.00
78330;PMS7003;67594;53.854;-1.542;2023-02-28T10:20:31;0.00;0.00;0.00
78330;PMS7003;67594;53.854;-1.542;2023-02-28T10:25:38;0.00;0.00;0.00
78330;PMS7003;67594;53.854;-1.542;2023-02-28T10:28:11;0.00;0.00;0.00
78330;PMS7003;67594;53.854;-1.542;2023-02-28T10:30:42;0.00;0.00;0.00
78330;PMS7003;67594;53.854;-1.542;2023-02-28T10:33:24;0.00;0.00;0.00
78330;PMS7003;67594;53.854;-1.542;2023-02-28T10:35:50;0.00;0.00;0.00
78330;PMS7003;67594;53.854;-1.542;2023-02-28T10:38:18;0.00;0.00;0.00
78330;PMS7003;67594;53.854;-1.542;2023-02-28T10:40:45;0.00;0.00;0.00
78330;PMS7003;67594;53.854;-1.542;2023-02-28T10:45:40;0.00;0.00;0.00
78330;PMS7003;67594;53.854;-1.542;2023-02-28T10:50:44;0.00;0.00;0.00
78330;PMS7003;67594;53.854;-1.542;2023-02-28T10:53:24;0.00;0.00;0.00
78330;PMS7003;67594;53.854;-1.542;2023-02-28T11:01:20;0.00;0.00;0.00
78330;PMS7003;67594;53.854;-1.542;2023-02-28T11:03:55;0.00;0.00;0.00
78330;PMS7003;67594;53.854;-1.542;2023-02-28T11:06:29;0.00;0.00;0.00
78330;PMS7003;67594;53.854;-1.542;2023-02-28T11:08:57;0.00;0.00;0.00
78330;PMS7003;67594;53.854;-1.542;2023-02-28T11:11:26;0.25;0.00;0.00
78330;PMS7003;67594;53.854;-1.542;2023-02-28T11:13:55;0.00;0.00;0.00
78330;PMS7003;67594;53.854;-1.542;2023-02-28T11:16:31;0.00;0.00;0.00
78330;PMS7003;67594;53.854;-1.542;2023-02-28T11:19:02;0.00;0.00;0.00
78330;PMS7003;67594;53.854;-1.542;2023-02-28T11:21:35;1.00;0.00;0.00
78330;PMS7003;67594;53.854;-1.542;2023-02-28T11:24:04;0.00;0.00;0.00
78330;PMS7003;67594;53.854;-1.542;2023-02-28T11:26:46;0.00;0.00;0.00
78330;PMS7003;67594;53.854;-1.542;2023-02-28T11:29:20;0.00;0.00;0.00
78330;PMS7003;67594;53.854;-1.542;2023-02-28T11:34:26;0.50;0.00;0.00
78330;PMS7003;67594;53.854;-1.542;2023-02-28T11:36:53;0.00;0.00;0.00
78330;PMS7003;67594;53.854;-1.542;2023-02-28T11:39:19;0.00;0.00;0.00
78330;PMS7003;67594;53.854;-1.542;2023-02-28T11:46:56;0.00;0.00;0.00
78330;PMS7003;67594;53.854;-1.542;2023-02-28T11:49:36;0.50;0.00;0.00
78330;PMS7003;67594;53.854;-1.542;2023-02-28T11:55:16;1.00;1.00;1.00
78330;PMS7003;67594;53.854;-1.542;2023-02-28T12:05:44;14.75;14.25;9.00
78330;PMS7003;67594;53.854;-1.542;2023-02-28T12:20:30;9.75;9.00;6.00
78330;PMS7003;67594;53.854;-1.542;2023-02-28T12:28:43;6.50;6.00;5.00
78330;PMS7003;67594;53.854;-1.542;2023-02-28T12:31:15;6.50;5.00;3.75
78330;PMS7003;67594;53.854;-1.542;2023-02-28T12:33:47;5.50;5.50;3.25
78330;PMS7003;67594;53.854;-1.542;2023-02-28T12:36:17;5.50;5.00;4.00
78330;PMS7003;67594;53.854;-1.542;2023-02-28T12:38:48;3.75;3.00;2.00
78330;PMS7003;67594;53.854;-1.542;2023-02-28T12:41:20;4.75;4.00;3.00
78330;PMS7003;67594;53.854;-1.542;2023-02-28T12:44:21;3.50;3.50;3.00
78330;PMS7003;67594;53.854;-1.542;2023-02-28T12:46:55;3.50;3.50;2.00
78330;PMS7003;67594;53.854;-1.542;2023-02-28T12:49:29;3.00;2.00;1.50
78330;PMS7003;67594;53.854;-1.542;2023-02-28T12:51:59;4.50;3.00;2.00
78330;PMS7003;67594;53.854;-1.542;2023-02-28T12:57:45;1.50;1.25;1.00
78330;PMS7003;67594;53.854;-1.542;2023-02-28T13:00:19;2.00;2.00;1.00
78330;PMS7003;67594;53.854;-1.542;2023-02-28T13:08:24;3.00;2.00;1.00
78330;PMS7003;67594;53.854;-1.542;2023-02-28T13:10:52;3.00;3.00;1.00
78330;PMS7003;67594;53.854;-1.542;2023-02-28T13:13:19;2.00;1.50;1.00
78330;PMS7003;67594;53.854;-1.542;2023-02-28T13:16:05;2.00;1.50;1.00
78330;PMS7003;67594;53.854;-1.542;2023-02-28T13:18:44;1.75;1.75;1.00
78330;PMS7003;67594;53.854;-1.542;2023-02-28T13:21:24;2.00;2.00;1.33
78330;PMS7003;67594;53.854;-1.542;2023-02-28T13:28:57;1.00;1.00;1.00
78330;PMS7003;67594;53.854;-1.542;2023-02-28T13:31:25;1.00;1.00;0.25
78330;PMS7003;67594;53.854;-1.542;2023-02-28T13:36:23;0.75;0.75;0.00
78330;PMS7003;67594;53.854;-1.542;2023-02-28T13:38:55;2.00;1.00;1.00
78330;PMS7003;67594;53.854;-1.542;2023-02-28T13:44:15;0.25;0.25;0.00
78330;PMS7003;67594;53.854;-1.542;2023-02-28T13:51:49;1.75;1.00;0.00
78330;PMS7003;67594;53.854;-1.542;2023-02-28T13:56:52;0.00;0.00;0.00
78330;PMS7003;67594;53.854;-1.542;2023-02-28T14:05:15;0.00;0.00;0.00
78330;PMS7003;67594;53.854;-1.542;2023-02-28T14:10:20;1.00;0.00;0.00
78330;PMS7003;67594;53.854;-1.542;2023-02-28T14:12:54;1.00;0.00;0.00
78330;PMS7003;67594;53.854;-1.542;2023-02-28T14:17:55;0.00;0.00;0.00
78330;PMS7003;67594;53.854;-1.542;2023-02-28T14:20:22;0.00;0.00;0.00
78330;PMS7003;67594;53.854;-1.542;2023-02-28T14:28:27;0.00;0.00;0.00
78330;PMS7003;67594;53.854;-1.542;2023-02-28T14:31:18;0.00;0.00;0.00
78330;PMS7003;67594;53.854;-1.542;2023-02-28T14:36:42;0.00;0.00;0.00
78330;PMS7003;67594;53.854;-1.542;2023-02-28T14:39:15;0.00;0.00;0.00
78330;PMS7003;67594;53.854;-1.542;2023-02-28T14:41:45;0.00;0.00;0.00
78330;PMS7003;67594;53.854;-1.542;2023-02-28T14:44:24;0.00;0.00;0.00
78330;PMS7003;67594;53.854;-1.542;2023-02-28T14:46:55;0.00;0.00;0.00
78330;PMS7003;67594;53.854;-1.542;2023-02-28T14:49:30;0.00;0.00;0.00
78330;PMS7003;67594;53.854;-1.542;2023-02-28T14:52:42;0.25;0.00;0.00
78330;PMS7003;67594;53.854;-1.542;2023-02-28T14:54:54;0.00;0.00;0.00
78330;PMS7003;67594;53.854;-1.542;2023-02-28T14:57:23;0.75;0.75;0.50
78330;PMS7003;67594;53.854;-1.542;2023-02-28T15:02:36;0.00;0.00;0.00
78330;PMS7003;67594;53.854;-1.542;2023-02-28T15:05:50;1.00;0.00;0.00
78330;PMS7003;67594;53.854;-1.542;2023-02-28T15:08:01;0.00;0.00;0.00
78330;PMS7003;67594;53.854;-1.542;2023-02-28T15:10:38;0.00;0.00;0.00
78330;PMS7003;67594;53.854;-1.542;2023-02-28T15:16:13;0.00;0.00;0.00
78330;PMS7003;67594;53.854;-1.542;2023-02-28T15:21:21;0.00;0.00;0.00
78330;PMS7003;67594;53.854;-1.542;2023-02-28T15:23:55;1.00;0.00;0.00
78330;PMS7003;67594;53.854;-1.542;2023-02-28T15:26:30;0.00;0.00;0.00
78330;PMS7003;67594;53.854;-1.542;2023-02-28T15:29:04;0.00;0.00;0.00
78330;PMS7003;67594;53.854;-1.542;2023-02-28T15:31:34;0.00;0.00;0.00
78330;PMS7003;67594;53.854;-1.542;2023-02-28T15:34:06;0.00;0.00;0.00
78330;PMS7003;67594;53.854;-1.542;2023-02-28T15:36:40;0.00;0.00;0.00
78330;PMS7003;67594;53.854;-1.542;2023-02-28T15:39:18;0.00;0.00;0.00
78330;PMS7003;67594;53.854;-1.542;2023-02-28T15:41:49;0.00;0.00;0.00
78330;PMS7003;67594;53.854;-1.542;2023-02-28T15:47:01;0.00;0.00;0.00
78330;PMS7003;67594;53.854;-1.542;2023-02-28T15:49:32;0.00;0.00;0.00
78330;PMS7003;67594;53.854;-1.542;2023-02-28T15:52:12;0.00;0.00;0.00
78330;PMS7003;67594;53.854;-1.542;2023-02-28T15:54:40;0.00;0.00;0.00
78330;PMS7003;67594;53.854;-1.542;2023-02-28T15:57:06;1.50;1.50;1.00
78330;PMS7003;67594;53.854;-1.542;2023-02-28T15:59:37;0.00;0.00;0.00
78330;PMS7003;67594;53.854;-1.542;2023-02-28T16:02:04;0.00;0.00;0.00
78330;PMS7003;67594;53.854;-1.542;2023-02-28T16:04:54;0.00;0.00;0.00
78330;PMS7003;67594;53.854;-1.542;2023-02-28T16:07:21;0.00;0.00;0.00
78330;PMS7003;67594;53.854;-1.542;2023-02-28T16:09:47;0.00;0.00;0.00
78330;PMS7003;67594;53.854;-1.542;2023-02-28T16:12:12;0.00;0.00;0.00
78330;PMS7003;67594;53.854;-1.542;2023-02-28T16:14:37;1.00;1.00;1.00
78330;PMS7003;67594;53.854;-1.542;2023-02-28T16:17:03;0.00;0.00;0.00
78330;PMS7003;67594;53.854;-1.542;2023-02-28T16:19:32;0.00;0.00;0.00
78330;PMS7003;67594;53.854;-1.542;2023-02-28T16:21:57;0.00;0.00;0.00
78330;PMS7003;67594;53.854;-1.542;2023-02-28T16:24:22;0.00;0.00;0.00
78330;PMS7003;67594;53.854;-1.542;2023-02-28T16:26:48;0.00;0.00;0.00
78330;PMS7003;67594;53.854;-1.542;2023-02-28T16:29:24;0.00;0.00;0.00
78330;PMS7003;67594;53.854;-1.542;2023-02-28T16:31:53;1.00;1.00;1.00
78330;PMS7003;67594;53.854;-1.542;2023-02-28T16:34:19;4.00;4.00;4.00
78330;PMS7003;67594;53.854;-1.542;2023-02-28T16:36:48;5.50;5.50;5.50
78330;PMS7003;67594;53.854;-1.542;2023-02-28T16:39:14;7.00;7.00;7.00
78330;PMS7003;67594;53.854;-1.542;2023-02-28T16:41:42;10.00;9.50;9.50
78330;PMS7003;67594;53.854;-1.542;2023-02-28T16:44:10;11.75;11.75;11.75
78330;PMS7003;67594;53.854;-1.542;2023-02-28T16:46:39;12.00;12.00;12.00
78330;PMS7003;67594;53.854;-1.542;2023-02-28T16:49:05;13.50;13.50;13.50
78330;PMS7003;67594;53.854;-1.542;2023-02-28T16:51:36;11.25;11.25;11.25
78330;PMS7003;67594;53.854;-1.542;2023-02-28T16:54:01;10.00;10.00;10.00
78330;PMS7003;67594;53.854;-1.542;2023-02-28T16:56:27;10.00;10.00;10.00
78330;PMS7003;67594;53.854;-1.542;2023-02-28T16:58:52;10.00;10.00;9.75
78330;PMS7003;67594;53.854;-1.542;2023-02-28T17:01:22;11.50;11.50;11.50
78330;PMS7003;67594;53.854;-1.542;2023-02-28T17:03:48;10.00;10.00;10.00
78330;PMS7003;67594;53.854;-1.542;2023-02-28T17:06:32;9.50;9.00;9.00
78330;PMS7003;67594;53.854;-1.542;2023-02-28T17:08:57;9.50;9.25;9.25